createdAt,value
2022-12-04T00:02:16.496Z,-9.52
2022-12-04T00:04:43.827Z,-9.53
2022-12-04T00:07:12.192Z,-9.54
2022-12-04T00:09:39.718Z,-9.52
2022-12-04T00:12:08.040Z,-9.56
2022-12-04T00:14:49.057Z,-9.59
2022-12-04T00:17:26.405Z,-9.55
2022-12-04T00:19:56.768Z,-9.64
2022-12-04T00:22:25.826Z,-9.57
2022-12-04T00:24:53.118Z,-9.61
2022-12-04T00:27:20.323Z,-9.67
2022-12-04T00:29:47.590Z,-9.68
2022-12-04T00:32:14.783Z,-9.73
2022-12-04T00:34:43.602Z,-9.69
2022-12-04T00:37:11.711Z,-9.69
2022-12-04T00:39:38.935Z,-9.74
2022-12-04T00:42:06.303Z,-9.79
2022-12-04T00:44:33.766Z,-9.80
2022-12-04T00:47:01.101Z,-9.83
2022-12-04T00:49:28.455Z,-9.86
2022-12-04T00:51:57.331Z,-9.94
2022-12-04T00:54:24.667Z,-9.95
2022-12-04T00:56:52.054Z,-10.03
2022-12-04T00:59:19.237Z,-9.96
2022-12-04T01:01:46.565Z,-9.98
2022-12-04T01:04:13.915Z,-10.01
2022-12-04T01:06:41.394Z,-10.01
2022-12-04T01:09:10.114Z,-10.00
2022-12-04T01:11:38.666Z,-9.99
2022-12-04T01:14:06.041Z,-9.97
2022-12-04T01:16:35.920Z,-10.06
2022-12-04T01:19:04.273Z,-9.97
2022-12-04T01:21:31.641Z,-9.96
2022-12-04T01:23:59.855Z,-9.95
2022-12-04T01:26:28.647Z,-9.96
2022-12-04T01:28:55.883Z,-9.98
2022-12-04T01:31:24.045Z,-10.00
2022-12-04T01:33:51.777Z,-10.02
2022-12-04T01:36:21.936Z,-10.04
2022-12-04T01:38:49.792Z,-10.02
2022-12-04T01:41:20.325Z,-10.09
2022-12-04T01:44:14.225Z,-10.07
2022-12-04T01:46:43.005Z,-10.08
2022-12-04T01:49:12.958Z,-10.16
2022-12-04T01:51:44.335Z,-10.12
2022-12-04T01:54:17.486Z,-10.13
2022-12-04T01:56:49.213Z,-10.15
2022-12-04T01:59:21.908Z,-10.19
2022-12-04T02:01:54.859Z,-10.34
2022-12-04T02:04:22.224Z,-10.21
2022-12-04T02:06:49.507Z,-10.30
2022-12-04T02:09:23.026Z,-10.26
2022-12-04T02:12:00.771Z,-10.26
2022-12-04T02:14:39.119Z,-10.26
2022-12-04T02:17:17.052Z,-10.29
2022-12-04T02:20:11.312Z,-10.31
2022-12-04T02:23:20.572Z,-10.35
2022-12-04T02:25:54.834Z,-10.34
2022-12-04T02:28:27.446Z,-10.30
2022-12-04T02:30:59.839Z,-10.43
2022-12-04T02:33:31.699Z,-10.45
2022-12-04T02:36:04.658Z,-10.41
2022-12-04T02:38:35.957Z,-10.44
2022-12-04T02:41:09.947Z,-10.51
2022-12-04T02:43:45.929Z,-10.48
2022-12-04T02:46:18.712Z,-10.53
2022-12-04T02:48:49.769Z,-10.51
2022-12-04T02:51:20.781Z,-10.54
2022-12-04T02:53:52.443Z,-10.65
2022-12-04T02:56:24.655Z,-10.63
2022-12-04T02:58:56.695Z,-10.64
2022-12-04T03:01:30.935Z,-10.61
2022-12-04T03:04:02.164Z,-10.55
2022-12-04T03:06:34.211Z,-10.58
2022-12-04T03:09:06.535Z,-10.60
2022-12-04T03:11:37.771Z,-10.65
2022-12-04T03:14:12.694Z,-10.67
2022-12-04T03:16:42.074Z,-10.68
2022-12-04T03:19:14.490Z,-10.68
2022-12-04T03:21:50.179Z,-10.72
2022-12-04T03:24:24.037Z,-10.73
2022-12-04T03:26:59.320Z,-10.73
2022-12-04T03:29:33.873Z,-10.73
2022-12-04T03:32:09.947Z,-10.78
2022-12-04T03:34:43.892Z,-10.79
2022-12-04T03:37:15.912Z,-10.81
2022-12-04T03:39:51.593Z,-10.83
2022-12-04T03:42:23.379Z,-10.84
2022-12-04T03:45:00.889Z,-10.84
2022-12-04T03:47:36.301Z,-10.84
2022-12-04T03:50:09.909Z,-10.84
2022-12-04T03:52:40.564Z,-10.87
2022-12-04T03:55:13.768Z,-10.91
2022-12-04T03:57:44.904Z,-10.94
2022-12-04T04:00:16.601Z,-10.95
2022-12-04T04:02:48.410Z,-10.93
2022-12-04T04:05:18.024Z,-10.98
2022-12-04T04:07:50.172Z,-11.03
2022-12-04T04:10:20.171Z,-10.98
2022-12-04T04:13:14.375Z,-10.98
2022-12-04T04:16:07.405Z,-11.04
2022-12-04T04:18:53.479Z,-11.07
2022-12-04T04:21:44.176Z,-11.22
2022-12-04T04:24:22.220Z,-11.10
2022-12-04T04:26:49.777Z,-11.09
2022-12-04T04:29:17.132Z,-11.10
2022-12-04T04:31:53.142Z,-11.13
2022-12-04T04:34:27.326Z,-11.11
2022-12-04T04:36:59.550Z,-11.22
2022-12-04T04:39:34.495Z,-11.20
2022-12-04T04:42:13.122Z,-11.16
2022-12-04T04:44:45.872Z,-11.11
2022-12-04T04:47:21.978Z,-11.12
2022-12-04T04:49:52.434Z,-11.11
2022-12-04T04:52:21.978Z,-11.14
2022-12-04T04:54:49.499Z,-11.15
2022-12-04T04:57:27.278Z,-11.17
2022-12-04T04:59:54.859Z,-11.19
2022-12-04T05:02:25.878Z,-11.18
2022-12-04T05:04:53.237Z,-11.18
2022-12-04T05:07:20.620Z,-11.18
2022-12-04T05:09:47.936Z,-11.12
2022-12-04T05:12:15.553Z,-11.15
2022-12-04T05:14:42.859Z,-11.19
2022-12-04T05:17:12.829Z,-11.15
2022-12-04T05:19:54.483Z,-11.17
2022-12-04T05:22:25.198Z,-11.18
2022-12-04T05:24:53.478Z,-11.19
2022-12-04T05:27:21.194Z,-11.20
2022-12-04T05:29:48.503Z,-11.18
2022-12-04T05:32:15.948Z,-11.17
2022-12-04T05:34:44.882Z,-11.16
2022-12-04T05:37:12.151Z,-11.17
2022-12-04T05:39:39.601Z,-11.18
2022-12-04T05:42:07.093Z,-11.17
2022-12-04T05:44:34.447Z,-11.17
2022-12-04T05:47:01.977Z,-11.17
2022-12-04T05:49:29.960Z,-11.13
2022-12-04T05:51:58.636Z,-11.11
2022-12-04T05:54:26.178Z,-11.10
2022-12-04T05:56:53.750Z,-11.10
2022-12-04T05:59:20.979Z,-11.10
2022-12-04T06:01:48.214Z,-11.05
2022-12-04T06:04:15.815Z,-10.99
2022-12-04T06:06:43.036Z,-10.92
2022-12-04T06:09:12.159Z,-10.86
2022-12-04T06:11:41.035Z,-10.82
2022-12-04T06:14:11.940Z,-10.67
2022-12-04T06:16:41.444Z,-10.68
2022-12-04T06:19:11.501Z,-10.69
2022-12-04T06:21:40.825Z,-10.76
2022-12-04T06:24:09.100Z,-10.61
2022-12-04T06:26:47.593Z,-10.57
2022-12-04T06:29:25.478Z,-10.57
2022-12-04T06:31:52.744Z,-10.56
2022-12-04T06:34:20.250Z,-10.59
2022-12-04T06:36:47.598Z,-10.64
2022-12-04T06:39:18.667Z,-10.74
2022-12-04T06:41:47.944Z,-10.86
2022-12-04T06:44:15.766Z,-10.91
2022-12-04T06:46:46.821Z,-10.98
2022-12-04T06:49:14.604Z,-11.00
2022-12-04T06:51:41.840Z,-10.97
2022-12-04T06:54:10.603Z,-10.95
2022-12-04T06:56:37.906Z,-10.90
2022-12-04T06:59:06.987Z,-10.94
2022-12-04T07:01:35.440Z,-10.93
2022-12-04T07:04:04.717Z,-10.98
2022-12-04T07:06:34.498Z,-11.06
2022-12-04T07:09:04.051Z,-10.92
2022-12-04T07:11:31.624Z,-10.84
2022-12-04T07:13:58.976Z,-10.79
2022-12-04T07:16:34.015Z,-10.82
2022-12-04T07:19:04.239Z,-10.69
2022-12-04T07:21:32.295Z,-10.68
2022-12-04T07:24:01.487Z,-10.65
2022-12-04T07:26:29.764Z,-10.63
2022-12-04T07:28:58.278Z,-10.62
2022-12-04T07:31:29.176Z,-10.57
2022-12-04T07:33:57.620Z,-10.56
2022-12-04T07:36:26.316Z,-10.56
2022-12-04T07:38:55.716Z,-10.35
2022-12-04T07:41:23.571Z,-10.18
2022-12-04T07:43:51.262Z,-9.98
2022-12-04T07:46:20.758Z,-9.85
2022-12-04T07:48:49.496Z,-9.72
2022-12-04T07:51:19.386Z,-9.69
2022-12-04T07:53:46.911Z,-9.66
2022-12-04T07:56:15.507Z,-9.65
2022-12-04T07:58:43.429Z,-9.50
2022-12-04T08:01:13.094Z,-9.48
2022-12-04T08:03:47.096Z,-9.38
2022-12-04T08:06:18.421Z,-9.19
2022-12-04T08:08:46.247Z,-8.92
2022-12-04T08:11:15.994Z,-8.86
2022-12-04T08:13:43.308Z,-8.80
2022-12-04T08:16:12.788Z,-8.70
2022-12-04T08:18:40.526Z,-8.61
2022-12-04T08:21:10.053Z,-8.59
2022-12-04T08:23:40.350Z,-8.57
2022-12-04T08:26:08.943Z,-8.47
2022-12-04T08:28:37.056Z,-8.35
2022-12-04T08:31:05.299Z,-8.33
2022-12-04T08:33:33.096Z,-8.34
2022-12-04T08:36:00.699Z,-8.31
2022-12-04T08:38:30.962Z,-8.27
2022-12-04T08:41:01.805Z,-8.33
2022-12-04T08:43:29.214Z,-8.31
2022-12-04T08:45:57.393Z,-8.22
2022-12-04T08:48:24.951Z,-8.11
2022-12-04T08:50:52.288Z,-8.03
2022-12-04T08:53:19.619Z,-7.92
2022-12-04T08:55:46.899Z,-7.83
2022-12-04T08:58:15.547Z,-7.75
2022-12-04T09:00:43.481Z,-7.72
2022-12-04T09:03:13.914Z,-7.74
2022-12-04T09:05:41.730Z,-7.79
2022-12-04T09:08:09.048Z,-7.69
2022-12-04T09:10:36.972Z,-7.62
2022-12-04T09:13:05.806Z,-7.65
2022-12-04T09:15:35.205Z,-7.61
2022-12-04T09:18:02.524Z,-7.54
2022-12-04T09:20:29.822Z,-7.48
2022-12-04T09:23:05.264Z,-7.53
2022-12-04T09:25:35.963Z,-7.40
2022-12-04T09:28:04.150Z,-7.37
2022-12-04T09:30:31.379Z,-7.27
2022-12-04T09:33:00.076Z,-7.24
2022-12-04T09:35:27.457Z,-7.17
2022-12-04T09:37:54.849Z,-7.01
2022-12-04T09:40:30.680Z,-6.87
2022-12-04T09:43:09.319Z,-6.90
2022-12-04T09:45:46.922Z,-6.94
2022-12-04T09:48:18.746Z,-6.97
2022-12-04T09:50:48.637Z,-7.01
2022-12-04T09:53:19.598Z,-7.06
2022-12-04T09:55:54.659Z,-7.04
2022-12-04T09:58:26.854Z,-7.03
2022-12-04T10:00:56.742Z,-7.03
2022-12-04T10:03:28.372Z,-7.05
2022-12-04T10:06:04.974Z,-7.08
2022-12-04T10:08:35.688Z,-7.03
2022-12-04T10:11:12.891Z,-7.01
2022-12-04T10:13:54.708Z,-7.01
2022-12-04T10:16:28.493Z,-7.04
2022-12-04T10:19:08.828Z,-7.12
2022-12-04T10:21:50.671Z,-6.96
2022-12-04T10:24:29.581Z,-6.89
2022-12-04T10:27:00.132Z,-6.85
2022-12-04T10:29:30.971Z,-6.87
2022-12-04T10:32:05.412Z,-6.89
2022-12-04T10:34:34.502Z,-6.87
2022-12-04T10:37:12.051Z,-6.76
2022-12-04T10:39:44.802Z,-6.77
2022-12-04T10:42:21.523Z,-6.85
2022-12-04T10:44:48.926Z,-6.85
2022-12-04T10:47:16.713Z,-6.81
2022-12-04T10:49:45.570Z,-6.82
2022-12-04T10:52:15.413Z,-6.81
2022-12-04T10:54:48.486Z,-6.80
2022-12-04T10:57:16.370Z,-6.82
2022-12-04T10:59:50.398Z,-6.73
2022-12-04T11:02:22.364Z,-6.73
2022-12-04T11:04:57.113Z,-6.90
2022-12-04T11:07:27.206Z,-6.84
2022-12-04T11:09:57.295Z,-6.82
2022-12-04T11:12:25.039Z,-6.84
2022-12-04T11:15:03.953Z,-6.83
2022-12-04T11:17:31.705Z,-6.78
2022-12-04T11:20:01.801Z,-6.75
2022-12-04T11:22:32.082Z,-6.67
2022-12-04T11:24:59.924Z,-6.59
2022-12-04T11:27:32.498Z,-6.56
2022-12-04T11:30:02.748Z,-6.61
2022-12-04T11:32:35.043Z,-6.70
2022-12-04T11:35:12.744Z,-6.80
2022-12-04T11:37:45.145Z,-6.78
2022-12-04T11:40:19.154Z,-6.76
2022-12-04T11:42:58.573Z,-6.74
2022-12-04T11:45:25.916Z,-6.73
2022-12-04T11:47:55.397Z,-6.76
2022-12-04T11:50:30.641Z,-6.85
2022-12-04T11:53:11.102Z,-6.92
2022-12-04T11:55:48.981Z,-6.93
2022-12-04T11:58:32.277Z,-6.97
2022-12-04T12:01:14.051Z,-7.03
2022-12-04T12:03:50.046Z,-7.07
2022-12-04T12:06:32.000Z,-7.04
2022-12-04T12:09:11.998Z,-7.14
2022-12-04T12:11:41.387Z,-7.04
2022-12-04T12:14:16.444Z,-7.06
2022-12-04T12:16:56.476Z,-7.09
2022-12-04T12:19:44.319Z,-7.21
2022-12-04T12:22:27.290Z,-7.08
2022-12-04T12:25:06.148Z,-7.10
2022-12-04T12:27:50.602Z,-7.10
2022-12-04T12:30:20.213Z,-7.11
2022-12-04T12:33:00.143Z,-7.15
2022-12-04T12:35:30.169Z,-7.11
2022-12-04T12:38:02.422Z,-7.15
2022-12-04T12:40:34.154Z,-7.29
2022-12-04T12:43:06.043Z,-7.29
2022-12-04T12:45:43.108Z,-7.35
2022-12-04T12:48:25.649Z,-7.40
2022-12-04T12:51:22.081Z,-7.48
2022-12-04T12:53:51.555Z,-7.51
2022-12-04T12:56:23.143Z,-7.62
2022-12-04T12:58:54.447Z,-7.61
2022-12-04T13:01:27.072Z,-7.87
2022-12-04T13:04:00.407Z,-7.89
2022-12-04T13:06:30.335Z,-8.01
2022-12-04T13:09:07.086Z,-8.08
2022-12-04T13:11:34.543Z,-8.15
2022-12-04T13:14:03.805Z,-8.29
2022-12-04T13:16:36.835Z,-8.33
2022-12-04T13:19:10.293Z,-8.42
2022-12-04T13:21:42.593Z,-8.45
2022-12-04T13:24:56.707Z,-8.51
2022-12-04T13:27:35.024Z,-8.54
2022-12-04T13:30:14.560Z,-8.61
2022-12-04T13:33:23.493Z,-8.58
2022-12-04T13:36:30.480Z,-8.70
2022-12-04T13:39:27.291Z,-8.77
2022-12-04T13:42:00.512Z,-8.81
2022-12-04T13:44:28.731Z,-8.85
2022-12-04T13:47:00.235Z,-9.09
2022-12-04T13:49:30.131Z,-8.99
2022-12-04T13:51:59.325Z,-8.99
2022-12-04T13:54:31.944Z,-9.05
2022-12-04T13:57:19.960Z,-9.19
2022-12-04T13:59:49.004Z,-9.04
2022-12-04T14:02:28.905Z,-9.10
2022-12-04T14:05:00.194Z,-9.15
2022-12-04T14:07:31.857Z,-9.29
2022-12-04T14:10:04.902Z,-9.25
2022-12-04T14:12:38.919Z,-9.33
2022-12-04T14:15:08.900Z,-9.32
2022-12-04T14:17:38.584Z,-9.34
2022-12-04T14:20:10.323Z,-9.37
2022-12-04T14:22:44.319Z,-9.40
2022-12-04T14:25:34.415Z,-9.41
2022-12-04T14:28:13.518Z,-9.46
2022-12-04T14:30:41.390Z,-9.52
2022-12-04T14:33:12.193Z,-9.56
2022-12-04T14:35:45.934Z,-9.70
2022-12-04T14:38:38.140Z,-9.65
2022-12-04T14:41:05.990Z,-9.65
2022-12-04T14:43:39.821Z,-9.70
2022-12-04T14:46:14.242Z,-9.76
2022-12-04T14:48:50.375Z,-9.78
2022-12-04T14:51:27.613Z,-9.82
2022-12-04T14:54:03.607Z,-9.84
2022-12-04T14:56:45.874Z,-9.94
2022-12-04T14:59:17.565Z,-9.88
2022-12-04T15:01:47.447Z,-9.87
2022-12-04T15:04:23.749Z,-9.86
2022-12-04T15:06:56.829Z,-9.94
2022-12-04T15:09:46.572Z,-9.92
2022-12-04T15:12:36.506Z,-10.00
2022-12-04T15:15:14.107Z,-10.07
2022-12-04T15:17:41.405Z,-10.02
2022-12-04T15:20:15.965Z,-10.07
2022-12-04T15:22:43.610Z,-10.11
2022-12-04T15:25:22.894Z,-10.23
2022-12-04T15:27:53.327Z,-10.15
2022-12-04T15:30:24.207Z,-10.15
2022-12-04T15:32:53.650Z,-10.18
2022-12-04T15:35:24.650Z,-10.19
2022-12-04T15:37:52.288Z,-10.20
2022-12-04T15:40:22.470Z,-10.35
2022-12-04T15:42:50.107Z,-10.30
2022-12-04T15:45:31.751Z,-10.43
2022-12-04T15:47:59.571Z,-10.37
2022-12-04T15:50:28.778Z,-10.48
2022-12-04T15:53:00.474Z,-10.43
2022-12-04T15:55:30.684Z,-10.45
2022-12-04T15:58:02.301Z,-10.56
2022-12-04T16:00:34.302Z,-10.43
2022-12-04T16:03:03.916Z,-10.43
2022-12-04T16:05:35.637Z,-10.44
2022-12-04T16:08:21.875Z,-10.44
2022-12-04T16:10:57.936Z,-10.39
2022-12-04T16:13:34.256Z,-10.40
2022-12-04T16:16:06.765Z,-10.41
2022-12-04T16:18:34.919Z,-10.42
2022-12-04T16:21:02.297Z,-10.41
2022-12-04T16:23:29.633Z,-10.41
2022-12-04T16:25:56.900Z,-10.34
2022-12-04T16:28:24.524Z,-10.40
2022-12-04T16:30:52.960Z,-10.42
2022-12-04T16:33:21.728Z,-10.41
2022-12-04T16:35:49.483Z,-10.41
2022-12-04T16:38:17.780Z,-10.43
2022-12-04T16:40:46.276Z,-10.46
2022-12-04T16:43:15.558Z,-10.52
2022-12-04T16:45:46.350Z,-10.58
2022-12-04T16:48:15.152Z,-10.62
2022-12-04T16:50:44.366Z,-10.61
2022-12-04T16:53:16.329Z,-10.64
2022-12-04T16:55:46.058Z,-10.77
2022-12-04T16:58:13.893Z,-10.69
2022-12-04T17:00:43.858Z,-10.68
2022-12-04T17:03:18.500Z,-10.71
2022-12-04T17:05:47.317Z,-10.77
2022-12-04T17:08:14.709Z,-10.81
2022-12-04T17:10:42.105Z,-10.78
2022-12-04T17:13:09.369Z,-10.79
2022-12-04T17:15:36.630Z,-10.81
2022-12-04T17:18:09.073Z,-10.82
2022-12-04T17:20:41.256Z,-10.84
2022-12-04T17:23:14.153Z,-10.82
2022-12-04T17:25:41.947Z,-10.86
2022-12-04T17:28:09.347Z,-10.80
2022-12-04T17:30:36.757Z,-10.87
2022-12-04T17:33:04.524Z,-10.89
2022-12-04T17:35:31.961Z,-10.95
2022-12-04T17:38:04.083Z,-10.97
2022-12-04T17:40:34.599Z,-10.95
2022-12-04T17:43:02.249Z,-10.93
2022-12-04T17:45:29.550Z,-10.95
2022-12-04T17:48:04.752Z,-10.98
2022-12-04T17:50:32.134Z,-11.01
2022-12-04T17:52:59.519Z,-11.06
2022-12-04T17:55:31.361Z,-11.07
2022-12-04T17:58:01.364Z,-11.07
2022-12-04T18:00:28.797Z,-11.12
2022-12-04T18:02:56.396Z,-11.13
2022-12-04T18:05:24.036Z,-11.14
2022-12-04T18:07:51.291Z,-11.21
2022-12-04T18:10:18.574Z,-11.09
2022-12-04T18:12:46.038Z,-11.12
2022-12-04T18:15:14.869Z,-11.12
2022-12-04T18:17:42.227Z,-11.15
2022-12-04T18:20:10.360Z,-11.16
2022-12-04T18:22:37.983Z,-11.20
2022-12-04T18:25:07.512Z,-11.24
2022-12-04T18:27:38.970Z,-11.27
2022-12-04T18:30:11.536Z,-11.23
2022-12-04T18:32:40.396Z,-11.23
2022-12-04T18:35:10.348Z,-11.28
2022-12-04T18:37:37.626Z,-11.30
2022-12-04T18:40:07.264Z,-11.32
2022-12-04T18:42:34.848Z,-11.33
2022-12-04T18:45:02.328Z,-11.38
2022-12-04T18:47:31.220Z,-11.37
2022-12-04T18:50:00.218Z,-11.47
2022-12-04T18:52:27.778Z,-11.35
2022-12-04T18:54:55.107Z,-11.34
2022-12-04T18:57:22.293Z,-11.39
2022-12-04T18:59:49.731Z,-11.42
2022-12-04T19:02:17.271Z,-11.44
2022-12-04T19:04:44.589Z,-11.54
2022-12-04T19:07:13.145Z,-11.48
2022-12-04T19:10:10.058Z,-11.52
2022-12-04T19:12:27.617Z,-11.55
2022-12-04T19:14:54.790Z,-11.51
2022-12-04T19:17:22.639Z,-11.52
2022-12-04T19:19:49.973Z,-11.51
2022-12-04T19:22:22.078Z,-11.50
2022-12-04T19:24:49.379Z,-11.50
2022-12-04T19:27:16.870Z,-11.49
2022-12-04T19:29:44.380Z,-11.48
2022-12-04T19:32:11.950Z,-11.57
2022-12-04T19:34:39.972Z,-11.48
2022-12-04T19:37:07.437Z,-11.47
2022-12-04T19:39:36.269Z,-11.44
2022-12-04T19:42:03.672Z,-11.46
2022-12-04T19:47:19.080Z,-11.50
2022-12-04T19:49:46.840Z,-11.48
2022-12-04T19:52:14.163Z,-11.50
2022-12-04T19:54:42.933Z,-11.50
2022-12-04T19:57:10.368Z,-11.52
2022-12-04T19:59:41.771Z,-11.53
2022-12-04T20:02:12.288Z,-11.50
2022-12-04T20:04:39.851Z,-11.56
2022-12-04T20:07:07.083Z,-11.52
2022-12-04T20:09:34.526Z,-11.53
2022-12-04T20:12:03.348Z,-11.58
2022-12-04T20:14:30.606Z,-11.53
2022-12-04T20:16:58.661Z,-11.55
2022-12-04T20:19:26.102Z,-11.57
2022-12-04T20:21:59.114Z,-11.55
2022-12-04T20:24:26.924Z,-11.58
2022-12-04T20:26:54.387Z,-11.58
2022-12-04T20:29:23.068Z,-11.58
2022-12-04T20:31:50.275Z,-11.58
2022-12-04T20:34:19.541Z,-11.63
2022-12-04T20:36:48.286Z,-11.60
2022-12-04T20:39:16.514Z,-11.60
2022-12-04T20:41:44.045Z,-11.60
2022-12-04T20:44:14.652Z,-11.79
2022-12-04T20:46:43.395Z,-11.62
2022-12-04T20:49:20.583Z,-11.58
2022-12-04T20:51:50.468Z,-11.55
2022-12-04T20:54:19.583Z,-11.56
2022-12-04T20:56:49.019Z,-11.62
2022-12-04T20:59:18.751Z,-11.60
2022-12-04T21:01:49.170Z,-11.60
2022-12-04T21:04:18.076Z,-11.63
2022-12-04T21:06:47.170Z,-11.66
2022-12-04T21:09:16.599Z,-11.82
2022-12-04T21:11:46.568Z,-11.68
2022-12-04T21:14:35.327Z,-11.80
2022-12-04T21:17:06.131Z,-11.73
2022-12-04T21:19:33.335Z,-11.75
2022-12-04T21:22:00.507Z,-11.77
2022-12-04T21:24:28.792Z,-11.76
2022-12-04T21:26:56.713Z,-11.76
2022-12-04T21:29:24.071Z,-11.78
2022-12-04T21:31:51.401Z,-11.77
2022-12-04T21:34:20.250Z,-11.80
2022-12-04T21:36:47.768Z,-11.79
2022-12-04T21:39:15.291Z,-11.83
2022-12-04T21:42:01.136Z,-11.85
2022-12-04T21:44:28.495Z,-11.88
2022-12-04T21:46:56.025Z,-11.89
2022-12-04T21:49:24.688Z,-11.89
2022-12-04T21:51:59.469Z,-11.92
2022-12-04T21:54:27.895Z,-11.91
2022-12-04T21:56:56.183Z,-11.93
2022-12-04T21:59:23.546Z,-11.98
2022-12-04T22:01:50.812Z,-11.97
2022-12-04T22:04:18.221Z,-11.98
2022-12-04T22:06:47.398Z,-11.98
2022-12-04T22:09:14.949Z,-11.99
2022-12-04T22:11:42.912Z,-11.98
2022-12-04T22:14:11.469Z,-12.01
2022-12-04T22:16:42.665Z,-12.01
2022-12-04T22:19:11.417Z,-11.99
2022-12-04T22:21:39.739Z,-11.99
2022-12-04T22:24:28.509Z,-12.02
2022-12-04T22:26:55.860Z,-12.04
2022-12-04T22:32:10.437Z,-12.05
2022-12-04T22:34:40.832Z,-12.09
2022-12-04T22:37:08.503Z,-12.11
2022-12-04T22:39:50.029Z,-12.12
2022-12-04T22:42:20.851Z,-12.14
2022-12-04T22:44:48.148Z,-12.16
2022-12-04T22:47:15.429Z,-12.16
2022-12-04T22:49:42.604Z,-12.20
2022-12-04T22:52:09.808Z,-12.20
2022-12-04T22:54:37.017Z,-12.19
2022-12-04T22:57:05.842Z,-12.19
2022-12-04T22:59:33.901Z,-12.20
2022-12-04T23:02:01.311Z,-12.19
2022-12-04T23:04:29.182Z,-12.26
2022-12-04T23:06:56.529Z,-12.29
2022-12-04T23:09:23.854Z,-12.31
2022-12-04T23:11:52.145Z,-12.33
2022-12-04T23:14:22.018Z,-12.46
2022-12-04T23:16:49.867Z,-12.40
2022-12-04T23:19:18.949Z,-12.38
2022-12-04T23:21:47.950Z,-12.48
2022-12-04T23:24:18.171Z,-12.42
2022-12-04T23:26:47.151Z,-12.48
2022-12-04T23:29:36.943Z,-12.46
2022-12-04T23:32:03.478Z,-12.43
2022-12-04T23:34:30.959Z,-12.46
2022-12-04T23:36:58.287Z,-12.48
2022-12-04T23:39:25.533Z,-12.45
2022-12-04T23:41:52.718Z,-12.46
2022-12-04T23:44:19.645Z,-12.47
2022-12-04T23:46:46.878Z,-12.53
2022-12-04T23:49:15.494Z,-12.46
2022-12-04T23:51:42.822Z,-12.44
2022-12-04T23:54:10.501Z,-12.44
2022-12-04T23:56:37.775Z,-12.45
2022-12-04T23:59:05.087Z,-12.49
